sensor_id;sensor_type;location;lat;lon;timestamp;pressure;altitude;pressure_sealevel;temperature;humidity
62800;BME280;48842;51.046;13.796;2024-01-16T00:00:06;98964.34;;;3.45;60.75
62800;BME280;48842;51.046;13.796;2024-01-16T00:02:32;98967.78;;;3.46;60.88
62800;BME280;48842;51.046;13.796;2024-01-16T00:04:58;98971.22;;;3.43;60.28
62800;BME280;48842;51.046;13.796;2024-01-16T00:07:23;98972.06;;;3.41;60.74
62800;BME280;48842;51.046;13.796;2024-01-16T00:09:48;98968.63;;;3.42;60.02
62800;BME280;48842;51.046;13.796;2024-01-16T00:12:17;98976.41;;;3.45;60.05
62800;BME280;48842;51.046;13.796;2024-01-16T00:14:43;98968.69;;;3.48;60.27
62800;BME280;48842;51.046;13.796;2024-01-16T00:17:08;98979.91;;;3.52;60.19
62800;BME280;48842;51.046;13.796;2024-01-16T00:19:35;98979.09;;;3.54;59.59
62800;BME280;48842;51.046;13.796;2024-01-16T00:22:00;98994.63;;;3.54;59.68
62800;BME280;48842;51.046;13.796;2024-01-16T00:24:27;98979.09;;;3.56;59.11
62800;BME280;48842;51.046;13.796;2024-01-16T00:26:52;98980.84;;;3.58;58.95
62800;BME280;48842;51.046;13.796;2024-01-16T00:29:18;98986.88;;;3.57;58.79
62800;BME280;48842;51.046;13.796;2024-01-16T00:31:43;99049.75;;;3.47;58.48
62800;BME280;48842;51.046;13.796;2024-01-16T00:34:09;99004.88;;;3.45;59.47
62800;BME280;48842;51.046;13.796;2024-01-16T00:36:34;98999.44;;;3.22;60.88
62800;BME280;48842;51.046;13.796;2024-01-16T00:38:59;99003.63;;;3.12;61.14
62800;BME280;48842;51.046;13.796;2024-01-16T00:41:24;99006.16;;;3.06;61.46
62800;BME280;48842;51.046;13.796;2024-01-16T00:43:50;99007.00;;;3.05;61.86
62800;BME280;48842;51.046;13.796;2024-01-16T00:46:15;99006.09;;;3.01;61.79
62800;BME280;48842;51.046;13.796;2024-01-16T00:48:40;99016.44;;;3.00;62.40
62800;BME280;48842;51.046;13.796;2024-01-16T00:51:06;99019.84;;;2.97;62.88
62800;BME280;48842;51.046;13.796;2024-01-16T00:53:31;99010.31;;;2.94;62.10
62800;BME280;48842;51.046;13.796;2024-01-16T00:55:56;99010.31;;;2.94;62.15
62800;BME280;48842;51.046;13.796;2024-01-16T00:58:22;99010.34;;;2.97;62.56
62800;BME280;48842;51.046;13.796;2024-01-16T01:00:48;99042.28;;;2.98;62.67
62800;BME280;48842;51.046;13.796;2024-01-16T01:03:13;99016.41;;;2.98;62.45
62800;BME280;48842;51.046;13.796;2024-01-16T01:05:38;99028.47;;;2.99;62.78
62800;BME280;48842;51.046;13.796;2024-01-16T01:08:04;99031.97;;;3.01;62.36
62800;BME280;48842;51.046;13.796;2024-01-16T01:10:30;99034.56;;;3.03;62.16
62800;BME280;48842;51.046;13.796;2024-01-16T01:12:55;99039.78;;;3.06;62.23
62800;BME280;48842;51.046;13.796;2024-01-16T01:15:20;99043.25;;;3.09;62.27
62800;BME280;48842;51.046;13.796;2024-01-16T01:17:50;99059.66;;;3.10;62.10
62800;BME280;48842;51.046;13.796;2024-01-16T01:20:18;99051.06;;;3.12;61.55
62800;BME280;48842;51.046;13.796;2024-01-16T01:22:44;99057.94;;;3.10;61.40
62800;BME280;48842;51.046;13.796;2024-01-16T01:25:10;99060.56;;;3.15;61.73
62800;BME280;48842;51.046;13.796;2024-01-16T01:27:36;99058.91;;;3.17;61.22
62800;BME280;48842;51.046;13.796;2024-01-16T01:30:01;99065.81;;;3.21;61.26
62800;BME280;48842;51.046;13.796;2024-01-16T01:32:28;99075.28;;;3.19;61.78
62800;BME280;48842;51.046;13.796;2024-01-16T01:34:54;99062.34;;;3.19;61.63
62800;BME280;48842;51.046;13.796;2024-01-16T01:37:19;99076.13;;;3.17;61.57
62800;BME280;48842;51.046;13.796;2024-01-16T01:39:44;99081.28;;;3.15;61.59
62800;BME280;48842;51.046;13.796;2024-01-16T01:42:09;99075.22;;;3.13;61.82
62800;BME280;48842;51.046;13.796;2024-01-16T01:44:35;99082.94;;;3.10;61.87
62800;BME280;48842;51.046;13.796;2024-01-16T01:47:00;99080.31;;;3.07;62.25
62800;BME280;48842;51.046;13.796;2024-01-16T01:49:26;99072.56;;;3.07;61.96
62800;BME280;48842;51.046;13.796;2024-01-16T01:51:52;99083.75;;;3.06;62.37
62800;BME280;48842;51.046;13.796;2024-01-16T01:54:19;99078.53;;;3.03;62.36
62800;BME280;48842;51.046;13.796;2024-01-16T01:56:47;99077.66;;;3.04;62.84
62800;BME280;48842;51.046;13.796;2024-01-16T01:59:13;99074.19;;;3.02;62.63
62800;BME280;48842;51.046;13.796;2024-01-16T02:01:41;99074.25;;;3.05;62.87
62800;BME280;48842;51.046;13.796;2024-01-16T02:04:08;99081.16;;;3.06;63.00
62800;BME280;48842;51.046;13.796;2024-01-16T02:06:34;99086.38;;;3.09;62.34
62800;BME280;48842;51.046;13.796;2024-01-16T02:08:59;99082.16;;;3.14;62.61
62800;BME280;48842;51.046;13.796;2024-01-16T02:11:25;99094.22;;;3.17;62.14
62800;BME280;48842;51.046;13.796;2024-01-16T02:13:50;99088.25;;;3.21;62.06
62800;BME280;48842;51.046;13.796;2024-01-16T02:16:22;99096.91;;;3.23;61.92
62800;BME280;48842;51.046;13.796;2024-01-16T02:18:49;99107.28;;;3.24;62.10
62800;BME280;48842;51.046;13.796;2024-01-16T02:21:21;99112.47;;;3.24;61.88
62800;BME280;48842;51.046;13.796;2024-01-16T02:23:46;99116.81;;;3.30;61.28
62800;BME280;48842;51.046;13.796;2024-01-16T02:26:15;99114.31;;;3.33;60.71
62800;BME280;48842;51.046;13.796;2024-01-16T02:28:41;99122.91;;;3.32;61.05
62800;BME280;48842;51.046;13.796;2024-01-16T02:31:07;99115.13;;;3.32;60.70
62800;BME280;48842;51.046;13.796;2024-01-16T02:33:32;99115.13;;;3.30;61.55
62800;BME280;48842;51.046;13.796;2024-01-16T02:35:58;99117.66;;;3.27;61.04
62800;BME280;48842;51.046;13.796;2024-01-16T02:38:23;99123.66;;;3.23;61.67
62800;BME280;48842;51.046;13.796;2024-01-16T02:40:49;99122.78;;;3.23;61.60
62800;BME280;48842;51.046;13.796;2024-01-16T02:43:15;99115.84;;;3.20;62.17
62800;BME280;48842;51.046;13.796;2024-01-16T02:45:40;99127.91;;;3.20;62.01
62800;BME280;48842;51.046;13.796;2024-01-16T02:48:05;99132.22;;;3.19;62.04
62800;BME280;48842;51.046;13.796;2024-01-16T02:50:31;99132.22;;;3.21;62.47
62800;BME280;48842;51.046;13.796;2024-01-16T02:52:56;99155.44;;;3.16;62.44
62800;BME280;48842;51.046;13.796;2024-01-16T02:55:21;99145.97;;;3.17;62.46
62800;BME280;48842;51.046;13.796;2024-01-16T02:57:46;99147.66;;;3.13;63.03
62800;BME280;48842;51.046;13.796;2024-01-16T03:00:12;99138.09;;;3.09;62.92
62800;BME280;48842;51.046;13.796;2024-01-16T03:02:38;99138.06;;;3.06;63.00
62800;BME280;48842;51.046;13.796;2024-01-16T03:05:04;99149.19;;;3.02;63.34
62800;BME280;48842;51.046;13.796;2024-01-16T03:07:32;99151.00;;;3.07;62.76
62800;BME280;48842;51.046;13.796;2024-01-16T03:09:58;99156.22;;;3.09;62.76
62800;BME280;48842;51.046;13.796;2024-01-16T03:12:23;99152.81;;;3.11;62.50
62800;BME280;48842;51.046;13.796;2024-01-16T03:14:48;99162.38;;;3.17;63.13
62800;BME280;48842;51.046;13.796;2024-01-16T03:17:14;99165.03;;;3.22;62.71
62800;BME280;48842;51.046;13.796;2024-01-16T03:19:39;99166.81;;;3.26;62.46
62800;BME280;48842;51.046;13.796;2024-01-16T03:22:04;99163.34;;;3.27;61.86
62800;BME280;48842;51.046;13.796;2024-01-16T03:24:29;99162.53;;;3.29;61.90
62800;BME280;48842;51.046;13.796;2024-01-16T03:26:55;99165.19;;;3.34;61.56
62800;BME280;48842;51.046;13.796;2024-01-16T03:29:20;99170.41;;;3.39;61.24
62800;BME280;48842;51.046;13.796;2024-01-16T03:31:46;99179.16;;;3.45;60.93
62800;BME280;48842;51.046;13.796;2024-01-16T03:34:11;99170.56;;;3.48;60.64
62800;BME280;48842;51.046;13.796;2024-01-16T03:36:37;99176.63;;;3.50;60.50
62800;BME280;48842;51.046;13.796;2024-01-16T03:39:03;99178.41;;;3.54;60.29
62800;BME280;48842;51.046;13.796;2024-01-16T03:41:28;99182.75;;;3.57;60.53
62800;BME280;48842;51.046;13.796;2024-01-16T03:43:53;99186.25;;;3.60;60.27
62800;BME280;48842;51.046;13.796;2024-01-16T03:46:22;99181.94;;;3.59;59.67
62800;BME280;48842;51.046;13.796;2024-01-16T03:48:47;99189.75;;;3.62;59.90
62800;BME280;48842;51.046;13.796;2024-01-16T03:51:12;99192.28;;;3.59;59.96
62800;BME280;48842;51.046;13.796;2024-01-16T03:53:40;99197.47;;;3.59;59.73
62800;BME280;48842;51.046;13.796;2024-01-16T03:56:06;99192.22;;;3.56;59.62
62800;BME280;48842;51.046;13.796;2024-01-16T03:58:33;99197.41;;;3.56;60.04
62800;BME280;48842;51.046;13.796;2024-01-16T04:00:58;99213.81;;;3.55;60.77
62800;BME280;48842;51.046;13.796;2024-01-16T04:03:23;99212.03;;;3.53;60.28
62800;BME280;48842;51.046;13.796;2024-01-16T04:05:48;99211.13;;;3.49;60.56
62800;BME280;48842;51.046;13.796;2024-01-16T04:08:14;99211.03;;;3.44;61.14
62800;BME280;48842;51.046;13.796;2024-01-16T04:10:39;99215.34;;;3.42;61.17
62800;BME280;48842;51.046;13.796;2024-01-16T04:13:04;99217.06;;;3.42;61.55
62800;BME280;48842;51.046;13.796;2024-01-16T04:15:30;99219.66;;;3.42;61.14
62800;BME280;48842;51.046;13.796;2024-01-16T04:17:55;99227.44;;;3.43;61.91
62800;BME280;48842;51.046;13.796;2024-01-16T04:20:20;99227.47;;;3.46;61.50
62800;BME280;48842;51.046;13.796;2024-01-16T04:22:46;99241.22;;;3.42;61.50
62800;BME280;48842;51.046;13.796;2024-01-16T04:25:13;99244.66;;;3.41;61.65
62800;BME280;48842;51.046;13.796;2024-01-16T04:27:38;99243.66;;;3.31;61.78
62800;BME280;48842;51.046;13.796;2024-01-16T04:30:04;99232.28;;;3.22;62.07
62800;BME280;48842;51.046;13.796;2024-01-16T04:32:29;99236.47;;;3.15;62.31
62800;BME280;48842;51.046;13.796;2024-01-16T04:34:55;99243.38;;;3.13;62.67
62800;BME280;48842;51.046;13.796;2024-01-16T04:37:20;99240.78;;;3.13;62.86
62800;BME280;48842;51.046;13.796;2024-01-16T04:39:45;99255.50;;;3.17;63.34
62800;BME280;48842;51.046;13.796;2024-01-16T04:42:10;99252.09;;;3.21;62.88
62800;BME280;48842;51.046;13.796;2024-01-16T04:44:36;99241.81;;;3.24;63.10
62800;BME280;48842;51.046;13.796;2024-01-16T04:47:02;99238.38;;;3.27;62.99
62800;BME280;48842;51.046;13.796;2024-01-16T04:49:27;99235.00;;;3.29;62.72
62800;BME280;48842;51.046;13.796;2024-01-16T04:51:53;99238.47;;;3.31;62.60
62800;BME280;48842;51.046;13.796;2024-01-16T04:54:18;99248.03;;;3.37;62.55
62800;BME280;48842;51.046;13.796;2024-01-16T04:56:43;99240.38;;;3.42;62.45
62800;BME280;48842;51.046;13.796;2024-01-16T04:59:08;99243.00;;;3.45;62.11
62800;BME280;48842;51.046;13.796;2024-01-16T05:01:34;99245.63;;;3.48;61.82
62800;BME280;48842;51.046;13.796;2024-01-16T05:03:59;99241.38;;;3.53;61.59
62800;BME280;48842;51.046;13.796;2024-01-16T05:06:24;99250.06;;;3.57;61.12
62800;BME280;48842;51.046;13.796;2024-01-16T05:08:50;99247.50;;;3.60;60.98
62800;BME280;48842;51.046;13.796;2024-01-16T05:11:15;99251.00;;;3.63;61.01
62800;BME280;48842;51.046;13.796;2024-01-16T05:13:40;99249.31;;;3.65;60.75
62800;BME280;48842;51.046;13.796;2024-01-16T05:16:06;99240.72;;;3.66;60.57
62800;BME280;48842;51.046;13.796;2024-01-16T05:18:31;99256.28;;;3.70;60.31
62800;BME280;48842;51.046;13.796;2024-01-16T05:20:58;99264.94;;;3.72;59.97
62800;BME280;48842;51.046;13.796;2024-01-16T05:23:23;99244.19;;;3.69;58.97
62800;BME280;48842;51.046;13.796;2024-01-16T05:25:48;99252.84;;;3.72;58.62
62800;BME280;48842;51.046;13.796;2024-01-16T05:28:14;99264.97;;;3.73;58.65
62800;BME280;48842;51.046;13.796;2024-01-16T05:30:39;99267.53;;;3.73;58.47
62800;BME280;48842;51.046;13.796;2024-01-16T05:33:05;99268.41;;;3.74;57.90
62800;BME280;48842;51.046;13.796;2024-01-16T05:35:30;99265.81;;;3.74;57.40
62800;BME280;48842;51.046;13.796;2024-01-16T05:37:56;99270.13;;;3.73;57.75
62800;BME280;48842;51.046;13.796;2024-01-16T05:40:22;99277.94;;;3.76;57.21
62800;BME280;48842;51.046;13.796;2024-01-16T05:42:51;99278.88;;;3.80;58.20
62800;BME280;48842;51.046;13.796;2024-01-16T05:45:21;99273.78;;;3.86;57.90
62800;BME280;48842;51.046;13.796;2024-01-16T05:47:46;99284.25;;;3.95;58.04
62800;BME280;48842;51.046;13.796;2024-01-16T05:50:11;99273.91;;;3.97;57.01
62800;BME280;48842;51.046;13.796;2024-01-16T05:52:36;99292.00;;;3.95;57.37
62800;BME280;48842;51.046;13.796;2024-01-16T05:55:03;99289.38;;;3.92;56.96
62800;BME280;48842;51.046;13.796;2024-01-16T05:57:29;99303.09;;;3.85;56.66
62800;BME280;48842;51.046;13.796;2024-01-16T05:59:58;99295.34;;;3.87;56.69
62800;BME280;48842;51.046;13.796;2024-01-16T06:02:23;99297.91;;;3.83;56.08
62800;BME280;48842;51.046;13.796;2024-01-16T06:04:49;99303.09;;;3.85;56.07
62800;BME280;48842;51.046;13.796;2024-01-16T06:07:14;99323.78;;;3.83;56.16
62800;BME280;48842;51.046;13.796;2024-01-16T06:09:40;99307.41;;;3.84;56.59
62800;BME280;48842;51.046;13.796;2024-01-16T06:12:05;99311.78;;;3.87;56.27
62800;BME280;48842;51.046;13.796;2024-01-16T06:14:32;99322.13;;;3.87;56.55
62800;BME280;48842;51.046;13.796;2024-01-16T06:16:57;99328.19;;;3.88;56.52
62800;BME280;48842;51.046;13.796;2024-01-16T06:19:22;99338.50;;;3.84;56.56
62800;BME280;48842;51.046;13.796;2024-01-16T06:21:47;99330.59;;;3.75;57.49
62800;BME280;48842;51.046;13.796;2024-01-16T06:24:13;99349.38;;;3.63;57.65
62800;BME280;48842;51.046;13.796;2024-01-16T06:26:38;99342.28;;;3.50;58.60
62800;BME280;48842;51.046;13.796;2024-01-16T06:29:03;99339.59;;;3.44;59.11
62800;BME280;48842;51.046;13.796;2024-01-16T06:31:29;99341.28;;;3.40;58.93
62800;BME280;48842;51.046;13.796;2024-01-16T06:33:57;99347.25;;;3.38;59.04
62800;BME280;48842;51.046;13.796;2024-01-16T06:36:22;99345.50;;;3.37;59.25
62800;BME280;48842;51.046;13.796;2024-01-16T06:38:47;99351.53;;;3.37;59.39
62800;BME280;48842;51.046;13.796;2024-01-16T06:41:12;99345.53;;;3.38;60.12
62800;BME280;48842;51.046;13.796;2024-01-16T06:43:38;99355.88;;;3.38;59.69
62800;BME280;48842;51.046;13.796;2024-01-16T06:46:04;99367.09;;;3.39;59.90
62800;BME280;48842;51.046;13.796;2024-01-16T06:48:30;99374.91;;;3.40;59.82
62800;BME280;48842;51.046;13.796;2024-01-16T06:50:55;99358.50;;;3.40;59.77
62800;BME280;48842;51.046;13.796;2024-01-16T06:53:21;99365.41;;;3.39;59.61
62800;BME280;48842;51.046;13.796;2024-01-16T06:55:46;99382.59;;;3.37;59.73
62800;BME280;48842;51.046;13.796;2024-01-16T06:58:11;99380.88;;;3.35;59.45
62800;BME280;48842;51.046;13.796;2024-01-16T07:00:37;99391.25;;;3.36;59.13
62800;BME280;48842;51.046;13.796;2024-01-16T07:03:02;99385.97;;;3.31;59.59
62800;BME280;48842;51.046;13.796;2024-01-16T07:05:28;99397.28;;;3.37;59.08
62800;BME280;48842;51.046;13.796;2024-01-16T07:07:54;99392.00;;;3.30;59.95
62800;BME280;48842;51.046;13.796;2024-01-16T07:10:20;99401.34;;;3.24;60.22
62800;BME280;48842;51.046;13.796;2024-01-16T07:12:47;99404.69;;;3.18;60.14
62800;BME280;48842;51.046;13.796;2024-01-16T07:15:14;99408.13;;;3.16;60.08
62800;BME280;48842;51.046;13.796;2024-01-16T07:17:40;99407.22;;;3.15;60.16
62800;BME280;48842;51.046;13.796;2024-01-16T07:20:06;99408.16;;;3.17;60.32
62800;BME280;48842;51.046;13.796;2024-01-16T07:22:32;99415.97;;;3.20;60.23
62800;BME280;48842;51.046;13.796;2024-01-16T07:24:57;99418.63;;;3.25;60.20
62800;BME280;48842;51.046;13.796;2024-01-16T07:27:23;99438.53;;;3.27;59.80
62800;BME280;48842;51.046;13.796;2024-01-16T07:29:48;99424.72;;;3.28;59.49
62800;BME280;48842;51.046;13.796;2024-01-16T07:32:13;99423.97;;;3.34;58.94
62800;BME280;48842;51.046;13.796;2024-01-16T07:34:38;99426.63;;;3.39;58.97
62800;BME280;48842;51.046;13.796;2024-01-16T07:37:04;99426.72;;;3.42;58.01
62800;BME280;48842;51.046;13.796;2024-01-16T07:39:29;99435.38;;;3.44;57.60
62800;BME280;48842;51.046;13.796;2024-01-16T07:41:54;99437.16;;;3.48;57.69
62800;BME280;48842;51.046;13.796;2024-01-16T07:44:19;99442.41;;;3.51;57.59
62800;BME280;48842;51.046;13.796;2024-01-16T07:46:46;99445.88;;;3.53;57.23
62800;BME280;48842;51.046;13.796;2024-01-16T07:49:11;99448.44;;;3.52;56.33
62800;BME280;48842;51.046;13.796;2024-01-16T07:51:36;99462.28;;;3.54;56.45
62800;BME280;48842;51.046;13.796;2024-01-16T07:54:06;99465.78;;;3.57;56.04
62800;BME280;48842;51.046;13.796;2024-01-16T07:56:32;99459.81;;;3.60;56.00
62800;BME280;48842;51.046;13.796;2024-01-16T07:58:58;99460.69;;;3.62;56.00
62800;BME280;48842;51.046;13.796;2024-01-16T08:01:23;99479.66;;;3.59;55.00
62800;BME280;48842;51.046;13.796;2024-01-16T08:03:49;99466.72;;;3.59;54.82
62800;BME280;48842;51.046;13.796;2024-01-16T08:06:15;99480.53;;;3.61;54.71
62800;BME280;48842;51.046;13.796;2024-01-16T08:08:40;99478.03;;;3.66;55.29
62800;BME280;48842;51.046;13.796;2024-01-16T08:11:06;99484.03;;;3.65;54.88
62800;BME280;48842;51.046;13.796;2024-01-16T08:13:32;99484.97;;;3.67;54.97
62800;BME280;48842;51.046;13.796;2024-01-16T08:15:58;99485.00;;;3.69;55.04
62800;BME280;48842;51.046;13.796;2024-01-16T08:18:24;99485.81;;;3.67;54.99
62800;BME280;48842;51.046;13.796;2024-01-16T08:20:49;99494.47;;;3.66;54.38
62800;BME280;48842;51.046;13.796;2024-01-16T08:23:14;99490.16;;;3.69;54.97
62800;BME280;48842;51.046;13.796;2024-01-16T08:25:40;99492.84;;;3.73;55.19
62800;BME280;48842;51.046;13.796;2024-01-16T08:28:05;99497.25;;;3.79;55.24
62800;BME280;48842;51.046;13.796;2024-01-16T08:30:30;99500.78;;;3.84;54.65
62800;BME280;48842;51.046;13.796;2024-01-16T08:32:56;99501.69;;;3.86;54.62
62800;BME280;48842;51.046;13.796;2024-01-16T08:35:21;99498.28;;;3.87;54.20
62800;BME280;48842;51.046;13.796;2024-01-16T08:37:47;99487.91;;;3.87;54.05
62800;BME280;48842;51.046;13.796;2024-01-16T08:40:13;99495.69;;;3.89;54.02
62800;BME280;48842;51.046;13.796;2024-01-16T08:42:38;99497.53;;;3.94;54.37
62800;BME280;48842;51.046;13.796;2024-01-16T08:45:03;99504.50;;;4.00;53.89
62800;BME280;48842;51.046;13.796;2024-01-16T08:47:30;99512.31;;;4.01;53.46
62800;BME280;48842;51.046;13.796;2024-01-16T08:49:55;99512.31;;;4.01;53.28
62800;BME280;48842;51.046;13.796;2024-01-16T08:52:20;99510.59;;;4.02;53.56
62800;BME280;48842;51.046;13.796;2024-01-16T08:54:46;99521.81;;;4.01;53.67
62800;BME280;48842;51.046;13.796;2024-01-16T08:57:11;99524.41;;;4.02;53.25
62800;BME280;48842;51.046;13.796;2024-01-16T08:59:38;99539.16;;;4.05;53.11
62800;BME280;48842;51.046;13.796;2024-01-16T09:02:04;99534.81;;;4.04;52.91
62800;BME280;48842;51.046;13.796;2024-01-16T09:04:29;99528.72;;;4.00;53.21
62800;BME280;48842;51.046;13.796;2024-01-16T09:06:55;99533.03;;;4.01;53.12
62800;BME280;48842;51.046;13.796;2024-01-16T09:09:20;99544.31;;;4.04;52.77
62800;BME280;48842;51.046;13.796;2024-01-16T09:11:46;99536.63;;;4.10;53.20
62800;BME280;48842;51.046;13.796;2024-01-16T09:14:11;99541.03;;;4.14;52.61
62800;BME280;48842;51.046;13.796;2024-01-16T09:16:36;99541.91;;;4.16;52.49
62800;BME280;48842;51.046;13.796;2024-01-16T09:19:02;99545.47;;;4.21;52.39
62800;BME280;48842;51.046;13.796;2024-01-16T09:21:27;99544.69;;;4.27;52.90
62800;BME280;48842;51.046;13.796;2024-01-16T09:23:53;99550.00;;;4.34;53.43
62800;BME280;48842;51.046;13.796;2024-01-16T09:26:18;99544.03;;;4.39;52.67
62800;BME280;48842;51.046;13.796;2024-01-16T09:28:44;99554.47;;;4.45;52.90
62800;BME280;48842;51.046;13.796;2024-01-16T09:31:09;99543.19;;;4.41;51.84
62800;BME280;48842;51.046;13.796;2024-01-16T09:33:34;99541.50;;;4.43;52.12
62800;BME280;48842;51.046;13.796;2024-01-16T09:36:00;99537.28;;;4.48;51.95
62800;BME280;48842;51.046;13.796;2024-01-16T09:38:25;99546.78;;;4.49;51.61
62800;BME280;48842;51.046;13.796;2024-01-16T09:40:50;99542.53;;;4.53;52.05
62800;BME280;48842;51.046;13.796;2024-01-16T09:43:18;99549.53;;;4.60;52.14
62800;BME280;48842;51.046;13.796;2024-01-16T09:45:44;99546.06;;;4.61;51.48
62800;BME280;48842;51.046;13.796;2024-01-16T09:48:11;99543.41;;;4.57;51.52
62800;BME280;48842;51.046;13.796;2024-01-16T09:50:37;99548.59;;;4.57;51.26
62800;BME280;48842;51.046;13.796;2024-01-16T09:53:03;99547.72;;;4.53;51.00
62800;BME280;48842;51.046;13.796;2024-01-16T09:55:28;99545.94;;;4.52;51.50
62800;BME280;48842;51.046;13.796;2024-01-16T09:57:54;99552.00;;;4.52;51.01
62800;BME280;48842;51.046;13.796;2024-01-16T10:00:19;99553.75;;;4.53;51.29
62800;BME280;48842;51.046;13.796;2024-01-16T10:02:46;99553.72;;;4.52;50.85
62800;BME280;48842;51.046;13.796;2024-01-16T10:05:12;99539.94;;;4.54;51.53
62800;BME280;48842;51.046;13.796;2024-01-16T10:07:39;99552.13;;;4.60;51.63
62800;BME280;48842;51.046;13.796;2024-01-16T10:10:06;99547.00;;;4.63;51.62
62800;BME280;48842;51.046;13.796;2024-01-16T10:12:32;99547.84;;;4.62;51.20
62800;BME280;48842;51.046;13.796;2024-01-16T10:14:58;99546.06;;;4.61;50.83
62800;BME280;48842;51.046;13.796;2024-01-16T10:17:35;99550.41;;;4.61;50.76
62800;BME280;48842;51.046;13.796;2024-01-16T10:20:01;99553.00;;;4.61;50.60
62800;BME280;48842;51.046;13.796;2024-01-16T10:22:30;99557.31;;;4.60;51.11
62800;BME280;48842;51.046;13.796;2024-01-16T10:25:08;99557.38;;;4.63;51.27
62800;BME280;48842;51.046;13.796;2024-01-16T10:27:38;99559.97;;;4.63;50.62
62800;BME280;48842;51.046;13.796;2024-01-16T10:30:04;99557.41;;;4.66;50.70
62800;BME280;48842;51.046;13.796;2024-01-16T10:32:31;99562.63;;;4.68;50.55
62800;BME280;48842;51.046;13.796;2024-01-16T10:35:10;99565.16;;;4.65;49.75
62800;BME280;48842;51.046;13.796;2024-01-16T10:37:47;99560.81;;;4.62;49.86
62800;BME280;48842;51.046;13.796;2024-01-16T10:40:23;99569.44;;;4.63;49.61
62800;BME280;48842;51.046;13.796;2024-01-16T10:43:17;99556.44;;;4.61;49.42
62800;BME280;48842;51.046;13.796;2024-01-16T10:45:42;99568.59;;;4.64;49.98
62800;BME280;48842;51.046;13.796;2024-01-16T10:48:08;99569.47;;;4.64;49.77
62800;BME280;48842;51.046;13.796;2024-01-16T10:50:35;99565.19;;;4.66;49.87
62800;BME280;48842;51.046;13.796;2024-01-16T10:53:04;99557.50;;;4.72;49.36
62800;BME280;48842;51.046;13.796;2024-01-16T10:55:29;99554.94;;;4.76;49.30
62800;BME280;48842;51.046;13.796;2024-01-16T10:57:56;99562.78;;;4.80;49.49
62800;BME280;48842;51.046;13.796;2024-01-16T11:00:23;99556.81;;;4.86;49.89
62800;BME280;48842;51.046;13.796;2024-01-16T11:03:05;99552.56;;;4.89;49.22
62800;BME280;48842;51.046;13.796;2024-01-16T11:05:31;99558.66;;;4.93;49.35
62800;BME280;48842;51.046;13.796;2024-01-16T11:07:59;99560.47;;;4.99;48.93
62800;BME280;48842;51.046;13.796;2024-01-16T11:10:27;99550.13;;;5.03;48.92
62800;BME280;48842;51.046;13.796;2024-01-16T11:12:53;99551.09;;;5.09;48.82
62800;BME280;48842;51.046;13.796;2024-01-16T11:15:19;99546.78;;;5.11;48.81
62800;BME280;48842;51.046;13.796;2024-01-16T11:17:46;99543.34;;;5.12;49.01
62800;BME280;48842;51.046;13.796;2024-01-16T11:20:12;99556.41;;;5.19;48.93
62800;BME280;48842;51.046;13.796;2024-01-16T11:22:42;99556.41;;;5.19;48.28
62800;BME280;48842;51.046;13.796;2024-01-16T11:25:12;99555.53;;;5.19;48.57
62800;BME280;48842;51.046;13.796;2024-01-16T11:27:40;99552.03;;;5.17;48.53
62800;BME280;48842;51.046;13.796;2024-01-16T11:30:11;99554.59;;;5.14;48.27
62800;BME280;48842;51.046;13.796;2024-01-16T11:32:38;99558.91;;;5.12;48.07
62800;BME280;48842;51.046;13.796;2024-01-16T11:35:08;99556.28;;;5.10;48.57
62800;BME280;48842;51.046;13.796;2024-01-16T11:37:35;99552.88;;;5.13;48.62
62800;BME280;48842;51.046;13.796;2024-01-16T11:42:43;99550.34;;;5.17;48.46
62800;BME280;48842;51.046;13.796;2024-01-16T11:48:13;99556.28;;;5.09;47.61
62800;BME280;48842;51.046;13.796;2024-01-16T11:50:39;99557.94;;;5.05;47.69
62800;BME280;48842;51.046;13.796;2024-01-16T11:53:05;99551.84;;;5.00;48.01
62800;BME280;48842;51.046;13.796;2024-01-16T11:55:31;99549.22;;;4.98;47.64
62800;BME280;48842;51.046;13.796;2024-01-16T11:58:26;99547.47;;;4.97;47.54
62800;BME280;48842;51.046;13.796;2024-01-16T12:00:57;99555.28;;;5.00;48.12
62800;BME280;48842;51.046;13.796;2024-01-16T12:03:22;99550.13;;;5.03;47.98
62800;BME280;48842;51.046;13.796;2024-01-16T12:05:58;99564.00;;;5.02;47.74
62800;BME280;48842;51.046;13.796;2024-01-16T12:08:23;99551.06;;;5.05;47.85
62800;BME280;48842;51.046;13.796;2024-01-16T12:10:49;99550.16;;;5.05;47.70
62800;BME280;48842;51.046;13.796;2024-01-16T12:13:14;99545.88;;;5.07;47.96
62800;BME280;48842;51.046;13.796;2024-01-16T12:15:40;99548.53;;;5.12;47.93
62800;BME280;48842;51.046;13.796;2024-01-16T12:18:06;99549.41;;;5.14;47.34
62800;BME280;48842;51.046;13.796;2024-01-16T12:20:33;99554.56;;;5.12;47.13
62800;BME280;48842;51.046;13.796;2024-01-16T12:23:06;99544.19;;;5.11;47.49
62800;BME280;48842;51.046;13.796;2024-01-16T12:25:34;99552.88;;;5.13;47.61
62800;BME280;48842;51.046;13.796;2024-01-16T12:28:07;99541.63;;;5.14;47.44
62800;BME280;48842;51.046;13.796;2024-01-16T12:30:36;99542.50;;;5.13;47.40
62800;BME280;48842;51.046;13.796;2024-01-16T12:33:06;99542.53;;;5.16;47.21
62800;BME280;48842;51.046;13.796;2024-01-16T12:35:38;99550.25;;;5.10;47.06
62800;BME280;48842;51.046;13.796;2024-01-16T12:38:05;99551.91;;;5.06;47.22
62800;BME280;48842;51.046;13.796;2024-01-16T12:40:31;99550.19;;;5.06;47.38
62800;BME280;48842;51.046;13.796;2024-01-16T12:42:57;99555.44;;;5.10;47.26
62800;BME280;48842;51.046;13.796;2024-01-16T12:45:22;99550.28;;;5.13;47.21
62800;BME280;48842;51.046;13.796;2024-01-16T12:47:52;99540.75;;;5.12;47.37
62800;BME280;48842;51.046;13.796;2024-01-16T12:50:22;99558.91;;;5.12;47.70
62800;BME280;48842;51.046;13.796;2024-01-16T12:52:49;99539.91;;;5.13;47.49
62800;BME280;48842;51.046;13.796;2024-01-16T12:55:15;99541.66;;;5.17;47.60
62800;BME280;48842;51.046;13.796;2024-01-16T12:57:41;99533.91;;;5.18;47.48
62800;BME280;48842;51.046;13.796;2024-01-16T13:00:25;99524.41;;;5.20;47.18